Time;durP1;ratioP1;P1;durP2;ratioP2;P2;SDS_P1;SDS_P2;PMS_P1;PMS_P2;Temp;Humidity;BMP_temperature;BMP_pressure;BME280_temperature;BME280_humidity;BME280_pressure;Samples;Min_cycle;Max_cycle;Signal;HPM_P1;HPM_P2
2023/01/18 00:00:43;;;;;;;4.00;3.75;;;3.20;99.90;;;;;;5015202;28;20010;-73
2023/01/18 00:03:10;;;;;;;4.28;3.97;;;3.30;99.90;;;;;;5012956;28;20023;-73
2023/01/18 00:05:39;;;;;;;3.97;3.70;;;3.30;99.90;;;;;;5014682;28;20072;-73
2023/01/18 00:08:15;;;;;;;3.90;3.60;;;3.30;99.90;;;;;;5014880;28;20080;-74
2023/01/18 00:10:42;;;;;;;4.30;4.00;;;3.30;99.90;;;;;;5015379;28;20105;-73
2023/01/18 00:13:08;;;;;;;5.03;4.53;;;3.30;99.90;;;;;;5024565;28;20485;-73
2023/01/18 00:15:34;;;;;;;4.47;3.70;;;3.20;99.90;;;;;;5014918;28;20034;-74
2023/01/18 00:18:00;;;;;;;4.00;3.70;;;3.20;99.90;;;;;;5007909;28;20030;-73
2023/01/18 00:20:28;;;;;;;3.90;3.60;;;3.20;99.90;;;;;;5015558;28;20033;-73
2023/01/18 00:22:54;;;;;;;5.75;4.00;;;3.10;99.90;;;;;;5023608;28;20507;-74
2023/01/18 00:25:22;;;;;;;4.13;3.80;;;3.00;99.90;;;;;;5017070;28;20018;-73
2023/01/18 00:27:52;;;;;;;4.10;3.90;;;2.90;99.90;;;;;;5007801;28;20034;-75
2023/01/18 00:30:25;;;;;;;4.30;4.00;;;2.90;99.90;;;;;;5017204;28;20449;-73
2023/01/18 00:32:55;;;;;;;4.25;3.95;;;2.90;99.90;;;;;;5008282;28;20038;-74
2023/01/18 00:35:21;;;;;;;6.60;4.40;;;3.00;99.90;;;;;;5017148;28;20025;-74
2023/01/18 00:37:51;;;;;;;4.13;3.83;;;3.10;99.90;;;;;;5004967;28;20044;-73
2023/01/18 00:40:18;;;;;;;4.30;4.00;;;3.10;99.90;;;;;;5011336;28;20018;-74
2023/01/18 00:45:28;;;;;;;4.00;3.70;;;3.20;99.90;;;;;;5013460;28;20037;-73
2023/01/18 00:47:54;;;;;;;3.92;3.63;;;3.20;99.90;;;;;;5006412;28;20018;-73
2023/01/18 00:50:21;;;;;;;4.30;4.00;;;3.10;99.90;;;;;;5013420;28;20050;-73
2023/01/18 00:52:48;;;;;;;4.05;3.80;;;3.10;99.90;;;;;;5007486;28;20026;-74
2023/01/18 00:55:15;;;;;;;3.90;3.70;;;3.10;99.90;;;;;;5012191;28;20022;-73
2023/01/18 00:57:41;;;;;;;3.90;3.50;;;3.00;99.90;;;;;;5008323;28;20022;-72
2023/01/18 01:00:10;;;;;;;4.30;4.00;;;3.00;99.90;;;;;;5012118;28;20114;-73
2023/01/18 01:02:41;;;;;;;4.25;3.95;;;2.90;99.90;;;;;;5011043;28;20113;-72
2023/01/18 01:08:16;;;;;;;4.40;4.10;;;2.70;99.90;;;;;;5012725;28;20037;-72
2023/01/18 01:10:45;;;;;;;4.10;3.90;;;2.50;99.90;;;;;;5014846;28;20022;-72
2023/01/18 01:26:51;;;;;;;4.57;4.28;;;2.30;99.90;;;;;;5014263;28;20046;-73
2023/01/18 01:29:17;;;;;;;4.40;4.10;;;2.30;99.90;;;;;;5017612;28;20030;-73
2023/01/18 01:31:43;;;;;;;4.60;4.30;;;2.30;99.90;;;;;;5011764;28;20439;-73
2023/01/18 01:34:09;;;;;;;4.30;4.00;;;2.30;99.90;;;;;;5017348;28;20037;-73
2023/01/18 01:36:35;;;;;;;4.50;4.20;;;2.30;99.90;;;;;;5012748;28;20026;-73
2023/01/18 01:39:00;;;;;;;4.15;3.90;;;2.20;99.90;;;;;;5010303;28;20033;-73
2023/01/18 01:41:29;;;;;;;4.38;4.10;;;2.20;99.90;;;;;;5045191;28;20031;-73
2023/01/18 01:44:18;;;;;;;4.22;4.00;;;2.30;99.90;;;;;;5026357;28;20036;-72
2023/01/18 01:47:03;;;;;;;4.60;4.30;;;2.30;99.90;;;;;;5010350;28;20042;-72
2023/01/18 01:49:42;;;;;;;4.50;4.20;;;2.20;99.90;;;;;;5014466;28;20029;-73
2023/01/18 01:52:12;;;;;;;4.40;4.10;;;2.20;99.90;;;;;;5015459;28;20042;-73
2023/01/18 01:54:52;;;;;;;4.50;4.20;;;2.30;99.90;;;;;;5028570;28;20487;-72
2023/01/18 01:57:21;;;;;;;4.72;4.43;;;2.30;99.90;;;;;;5021288;28;20092;-72
2023/01/18 01:59:55;;;;;;;4.50;4.20;;;2.20;99.90;;;;;;5017244;28;20029;-73
2023/01/18 02:02:20;;;;;;;4.38;4.10;;;2.20;99.90;;;;;;5015414;28;20493;-73
2023/01/18 02:04:52;;;;;;;5.03;4.20;;;2.20;99.90;;;;;;5017916;28;20394;-73
2023/01/18 02:07:19;;;;;;;4.50;4.20;;;2.20;99.90;;;;;;5016687;28;20109;-75
2023/01/18 02:09:45;;;;;;;4.40;4.10;;;2.20;99.90;;;;;;5018050;28;20021;-73
2023/01/18 02:12:11;;;;;;;4.10;3.90;;;2.20;99.90;;;;;;5014218;28;20548;-72
2023/01/18 02:14:37;;;;;;;4.30;4.00;;;2.20;99.90;;;;;;5013572;28;20376;-73
2023/01/18 02:17:45;;;;;;;4.00;3.80;;;2.20;99.90;;;;;;5012265;28;20136;-73
2023/01/18 02:20:33;;;;;;;4.90;4.60;;;2.30;99.90;;;;;;5016089;28;20017;-73
2023/01/18 02:23:23;;;;;;;4.60;4.30;;;2.30;99.90;;;;;;5008942;28;20030;-73
2023/01/18 02:26:10;;;;;;;4.80;4.50;;;2.30;99.90;;;;;;5017467;28;20031;-73
2023/01/18 02:28:37;;;;;;;4.88;4.50;;;2.30;99.90;;;;;;5012715;28;20053;-73
2023/01/18 02:31:20;;;;;;;4.60;4.30;;;2.30;99.90;;;;;;5015307;28;20164;-74
2023/01/18 02:33:51;;;;;;;4.25;3.95;;;2.30;99.90;;;;;;5012794;28;20048;-73
2023/01/18 02:36:38;;;;;;;4.50;4.20;;;2.40;99.90;;;;;;5014044;28;20018;-73
2023/01/18 02:39:30;;;;;;;4.40;4.10;;;2.40;99.90;;;;;;5016886;28;20033;-73
2023/01/18 02:47:31;;;;;;;4.20;4.00;;;2.40;99.90;;;;;;5010592;28;20418;-73
2023/01/18 02:49:57;;;;;;;4.35;4.15;;;2.40;99.90;;;;;;5013105;28;20038;-73
2023/01/18 02:52:48;;;;;;;4.32;4.10;;;2.50;99.90;;;;;;5010135;28;20042;-73
2023/01/18 02:55:36;;;;;;;4.20;3.95;;;2.50;99.90;;;;;;5016048;28;20018;-73
2023/01/18 02:58:22;;;;;;;4.40;4.10;;;2.50;99.90;;;;;;5010387;28;20077;-73
2023/01/18 03:00:54;;;;;;;4.10;3.90;;;2.50;99.90;;;;;;5016123;28;20014;-73
2023/01/18 03:03:21;;;;;;;4.20;3.90;;;2.40;99.90;;;;;;5014802;28;20161;-72
2023/01/18 03:05:49;;;;;;;4.15;3.85;;;2.40;99.90;;;;;;5015937;28;20018;-73
2023/01/18 03:08:25;;;;;;;4.60;4.30;;;2.40;99.90;;;;;;5015944;28;20033;-73
2023/01/18 03:11:01;;;;;;;4.00;3.80;;;2.40;99.90;;;;;;5008707;28;20057;-73
2023/01/18 03:13:45;;;;;;;4.40;4.20;;;2.40;99.90;;;;;;5008622;28;20022;-72
2023/01/18 03:16:22;;;;;;;4.10;3.90;;;2.40;99.90;;;;;;5014203;28;20563;-72
2023/01/18 03:19:00;;;;;;;4.30;4.10;;;2.40;99.90;;;;;;5009216;28;20105;-73
2023/01/18 03:21:38;;;;;;;4.40;4.10;;;2.40;99.90;;;;;;5013103;28;20018;-73
2023/01/18 03:24:07;;;;;;;4.00;3.80;;;2.40;99.90;;;;;;5025740;28;20057;-73
2023/01/18 03:26:38;;;;;;;4.10;3.90;;;2.40;99.90;;;;;;5012798;28;20054;-75
2023/01/18 03:35:02;;;;;;;4.70;4.30;;;2.40;99.90;;;;;;5016139;28;20517;-73
2023/01/18 03:37:36;;;;;;;4.20;4.00;;;2.40;99.90;;;;;;5008123;28;20030;-72
2023/01/18 03:40:14;;;;;;;4.22;3.92;;;2.40;99.90;;;;;;5017929;28;20106;-72
2023/01/18 03:43:00;;;;;;;4.18;3.90;;;2.40;99.90;;;;;;5009014;28;20034;-73
2023/01/18 03:45:29;;;;;;;4.40;4.20;;;2.40;99.90;;;;;;5012454;28;20042;-73
2023/01/18 03:47:54;;;;;;;4.32;4.13;;;2.40;99.90;;;;;;5006790;28;20053;-73
2023/01/18 03:50:47;;;;;;;4.20;4.00;;;2.40;99.90;;;;;;5013344;28;20046;-73
2023/01/18 03:53:20;;;;;;;4.15;3.92;;;2.30;99.90;;;;;;5010969;28;20054;-73
2023/01/18 03:55:55;;;;;;;4.03;3.83;;;2.30;99.90;;;;;;5015481;28;20478;-73
2023/01/18 03:58:25;;;;;;;4.00;3.70;;;2.30;99.90;;;;;;5013689;28;20053;-72
2023/01/18 04:00:52;;;;;;;4.40;4.20;;;2.30;99.90;;;;;;5014975;28;20290;-73
2023/01/18 04:03:17;;;;;;;3.90;3.70;;;2.30;99.90;;;;;;5013490;28;20048;-73
2023/01/18 04:05:43;;;;;;;4.20;3.90;;;2.30;99.90;;;;;;5014899;28;20104;-73
2023/01/18 04:08:09;;;;;;;4.20;3.95;;;2.30;99.90;;;;;;5015531;28;20030;-73
2023/01/18 04:10:34;;;;;;;4.40;4.10;;;2.30;99.90;;;;;;5014624;28;20026;-73
2023/01/18 04:13:00;;;;;;;4.20;4.00;;;2.20;99.90;;;;;;5004345;28;20433;-73
2023/01/18 04:15:26;;;;;;;4.30;4.00;;;2.20;99.90;;;;;;5015997;28;20026;-73
2023/01/18 04:17:54;;;;;;;4.20;4.00;;;2.20;99.90;;;;;;5013486;28;20037;-73
2023/01/18 04:20:20;;;;;;;4.10;3.90;;;2.20;99.90;;;;;;5015918;28;20017;-73
2023/01/18 04:22:53;;;;;;;3.90;3.70;;;2.20;99.90;;;;;;5012531;28;20044;-73
2023/01/18 04:25:19;;;;;;;4.13;3.92;;;2.20;99.90;;;;;;5016970;28;20022;-73
2023/01/18 04:27:45;;;;;;;4.05;3.85;;;2.30;99.90;;;;;;5012122;28;20669;-73
2023/01/18 04:30:11;;;;;;;4.70;4.40;;;2.30;99.90;;;;;;5017123;28;20080;-73
2023/01/18 04:32:37;;;;;;;4.55;4.25;;;2.30;99.90;;;;;;5006320;28;20113;-73
2023/01/18 04:35:03;;;;;;;4.70;4.40;;;2.30;99.90;;;;;;5009127;28;20101;-72
2023/01/18 04:37:32;;;;;;;4.30;4.10;;;2.30;99.90;;;;;;5008024;28;20093;-73
2023/01/18 04:39:58;;;;;;;4.25;4.05;;;2.30;99.90;;;;;;5015799;28;20045;-73
2023/01/18 04:42:24;;;;;;;4.32;4.07;;;2.30;99.90;;;;;;5012359;28;20117;-73
2023/01/18 04:44:51;;;;;;;4.60;4.30;;;2.30;99.90;;;;;;5010986;28;20552;-73
2023/01/18 04:47:17;;;;;;;4.40;4.10;;;2.30;99.90;;;;;;5011600;28;20049;-72
2023/01/18 04:49:43;;;;;;;3.90;3.70;;;2.30;99.90;;;;;;5011856;28;20029;-71
2023/01/18 04:52:09;;;;;;;4.05;3.85;;;2.30;99.90;;;;;;5010716;28;20026;-72
2023/01/18 04:54:34;;;;;;;4.10;3.90;;;2.30;99.90;;;;;;5012659;28;20101;-73
2023/01/18 04:57:00;;;;;;;4.22;4.03;;;2.30;99.90;;;;;;5007182;28;20030;-72
2023/01/18 04:59:27;;;;;;;4.00;3.80;;;2.30;99.90;;;;;;5017487;28;20536;-72
2023/01/18 05:01:53;;;;;;;4.50;4.20;;;2.30;99.90;;;;;;5016074;28;20072;-73
2023/01/18 05:04:18;;;;;;;4.10;3.90;;;2.30;99.90;;;;;;5018558;28;20026;-73
2023/01/18 05:06:47;;;;;;;4.38;4.13;;;2.30;99.90;;;;;;5017212;28;20022;-72
2023/01/18 05:09:12;;;;;;;4.40;4.10;;;2.40;99.90;;;;;;5019558;28;20022;-72
2023/01/18 05:11:38;;;;;;;4.40;4.10;;;2.40;99.90;;;;;;5013833;28;20065;-72
2023/01/18 05:14:04;;;;;;;4.45;4.15;;;2.30;99.90;;;;;;5008554;28;20018;-73
2023/01/18 05:16:29;;;;;;;4.10;3.85;;;2.30;99.90;;;;;;5013912;28;20026;-73
2023/01/18 05:18:55;;;;;;;4.40;4.10;;;2.40;99.90;;;;;;5018964;28;20030;-72
2023/01/18 05:21:21;;;;;;;4.45;4.15;;;2.40;99.90;;;;;;5015985;28;20156;-72
2023/01/18 05:23:47;;;;;;;4.30;4.10;;;2.40;99.90;;;;;;5013809;28;20030;-72
2023/01/18 05:26:21;;;;;;;4.60;4.30;;;2.40;99.90;;;;;;5016816;28;20030;-73
2023/01/18 05:28:47;;;;;;;4.60;4.30;;;2.50;99.90;;;;;;5012927;28;20107;-73
2023/01/18 05:31:15;;;;;;;4.38;4.07;;;2.50;99.90;;;;;;5017327;28;20017;-72
2023/01/18 05:33:40;;;;;;;4.43;4.13;;;2.50;99.90;;;;;;5018558;28;20113;-73
2023/01/18 05:36:07;;;;;;;4.10;3.90;;;2.50;99.90;;;;;;5017338;28;20050;-73
2023/01/18 05:38:32;;;;;;;4.80;4.50;;;2.50;99.90;;;;;;5020523;28;20026;-72
2023/01/18 05:40:58;;;;;;;4.70;4.40;;;2.50;99.90;;;;;;5015710;28;20018;-72
2023/01/18 05:43:25;;;;;;;4.70;4.40;;;2.50;99.90;;;;;;5008709;28;20026;-74
2023/01/18 05:45:51;;;;;;;4.80;4.50;;;2.50;99.90;;;;;;5016442;28;20487;-73
2023/01/18 05:48:17;;;;;;;4.40;4.10;;;2.50;99.90;;;;;;5011685;28;20030;-73
2023/01/18 05:50:45;;;;;;;4.50;4.20;;;2.60;99.90;;;;;;5016126;28;20050;-73
2023/01/18 05:53:12;;;;;;;4.40;4.10;;;2.60;99.90;;;;;;5010713;28;20034;-73
2023/01/18 05:55:38;;;;;;;4.60;4.20;;;2.70;99.90;;;;;;5017131;28;20025;-73
2023/01/18 05:58:04;;;;;;;4.60;4.30;;;2.70;99.90;;;;;;5011671;28;20026;-73
2023/01/18 06:00:30;;;;;;;4.20;3.92;;;2.80;99.90;;;;;;5019042;28;20065;-73
2023/01/18 06:02:56;;;;;;;5.10;4.70;;;2.80;99.90;;;;;;5012477;28;20109;-73
2023/01/18 06:05:23;;;;;;;4.72;4.32;;;2.80;99.90;;;;;;5034211;28;20069;-74
2023/01/18 06:07:49;;;;;;;4.63;4.32;;;2.80;99.90;;;;;;5013772;28;20103;-73
2023/01/18 06:10:15;;;;;;;4.80;4.50;;;2.80;99.90;;;;;;5018213;28;20021;-73
2023/01/18 06:12:41;;;;;;;4.30;4.00;;;2.80;99.90;;;;;;5013053;28;20121;-73
2023/01/18 06:15:08;;;;;;;4.68;4.38;;;2.80;99.90;;;;;;5015948;28;20537;-73
2023/01/18 06:17:34;;;;;;;4.82;4.40;;;2.80;99.90;;;;;;5009859;28;20034;-73
2023/01/18 06:20:00;;;;;;;4.50;4.20;;;2.90;99.90;;;;;;5018114;28;20018;-73
2023/01/18 06:22:26;;;;;;;6.20;5.70;;;2.90;99.90;;;;;;5015662;28;20030;-73
2023/01/18 06:24:51;;;;;;;4.30;4.00;;;2.90;99.90;;;;;;5017781;28;20362;-73
2023/01/18 06:27:17;;;;;;;4.85;4.55;;;2.90;99.90;;;;;;5010451;28;20026;-73
2023/01/18 06:29:43;;;;;;;5.40;5.00;;;2.90;99.90;;;;;;5016720;28;20036;-73
2023/01/18 06:32:08;;;;;;;5.05;4.55;;;2.90;99.90;;;;;;5012587;28;20093;-73
2023/01/18 06:34:35;;;;;;;4.20;4.00;;;2.90;99.90;;;;;;5016506;28;20116;-73
2023/01/18 06:37:02;;;;;;;4.70;4.40;;;2.90;99.90;;;;;;5013695;28;20030;-73
2023/01/18 06:39:28;;;;;;;4.82;4.53;;;2.90;99.90;;;;;;5017108;28;20022;-73
2023/01/18 06:41:54;;;;;;;5.03;4.63;;;2.90;99.90;;;;;;5012259;28;20405;-73
2023/01/18 06:44:19;;;;;;;4.75;4.45;;;2.90;99.90;;;;;;5016463;28;20021;-73
2023/01/18 06:46:45;;;;;;;4.70;4.40;;;2.90;99.90;;;;;;5012969;28;20497;-74
2023/01/18 06:49:12;;;;;;;4.80;4.50;;;3.00;99.90;;;;;;5016584;28;20037;-73
2023/01/18 06:51:39;;;;;;;4.38;4.10;;;3.00;99.90;;;;;;5012756;28;20132;-73
2023/01/18 06:54:05;;;;;;;5.45;5.00;;;3.00;99.90;;;;;;5016517;28;20018;-73
2023/01/18 06:56:31;;;;;;;5.32;4.88;;;3.00;99.90;;;;;;5013632;28;20046;-74
2023/01/18 06:58:57;;;;;;;5.18;4.78;;;3.00;99.90;;;;;;5016057;28;20439;-73
2023/01/18 07:01:26;;;;;;;5.85;5.45;;;3.00;99.90;;;;;;5012879;28;20027;-73
2023/01/18 07:03:52;;;;;;;5.35;4.95;;;3.00;99.90;;;;;;5014471;28;20022;-74
2023/01/18 07:06:18;;;;;;;5.45;4.80;;;3.00;99.90;;;;;;5012660;28;20030;-73
2023/01/18 07:08:44;;;;;;;6.60;5.95;;;3.00;99.90;;;;;;5015696;28;20113;-73
2023/01/18 07:11:11;;;;;;;8.63;7.82;;;3.00;99.90;;;;;;5015003;28;20061;-74
2023/01/18 07:13:42;;;;;;;5.90;5.40;;;3.10;99.90;;;;;;5013941;28;20025;-74
2023/01/18 07:16:16;;;;;;;6.07;5.57;;;3.10;99.90;;;;;;5013598;28;20061;-73
2023/01/18 07:18:43;;;;;;;7.20;6.60;;;3.10;99.90;;;;;;5011932;28;20022;-75
2023/01/18 07:21:09;;;;;;;6.25;5.75;;;3.10;99.90;;;;;;5013314;28;20117;-73
2023/01/18 07:23:37;;;;;;;4.75;4.35;;;3.10;99.90;;;;;;5013460;28;20025;-73
2023/01/18 07:26:04;;;;;;;5.63;5.03;;;3.10;99.90;;;;;;5014847;28;20069;-73
2023/01/18 07:28:31;;;;;;;5.82;5.30;;;3.10;99.90;;;;;;5015204;28;20025;-73
2023/01/18 07:30:57;;;;;;;5.88;5.15;;;3.00;99.90;;;;;;5014636;28;20030;-73
2023/01/18 07:33:22;;;;;;;6.63;6.03;;;3.00;99.90;;;;;;5011940;28;20028;-73
2023/01/18 07:35:51;;;;;;;5.38;4.88;;;3.00;99.90;;;;;;5014972;28;20026;-73
2023/01/18 07:38:18;;;;;;;6.13;5.63;;;3.00;99.90;;;;;;5011641;28;20033;-73
2023/01/18 07:40:45;;;;;;;7.00;6.40;;;3.00;99.90;;;;;;5014328;28;20114;-73
2023/01/18 07:43:11;;;;;;;7.47;6.75;;;3.00;99.90;;;;;;5010902;28;20020;-74
2023/01/18 07:45:37;;;;;;;7.70;6.90;;;3.00;99.90;;;;;;5016315;28;20037;-73
2023/01/18 07:48:04;;;;;;;6.95;6.25;;;3.00;99.90;;;;;;5012978;28;20038;-73
2023/01/18 07:50:30;;;;;;;8.50;7.07;;;3.00;99.90;;;;;;5015605;28;20524;-73
2023/01/18 07:52:57;;;;;;;6.82;5.45;;;3.00;99.90;;;;;;5001048;28;20407;-72
2023/01/18 07:55:23;;;;;;;5.07;4.68;;;3.00;99.90;;;;;;5030487;28;20500;-73
2023/01/18 07:57:48;;;;;;;7.15;6.55;;;3.10;99.90;;;;;;5005648;28;20026;-73
2023/01/18 08:00:16;;;;;;;6.40;5.80;;;3.10;99.90;;;;;;5011292;28;20033;-73
2023/01/18 08:02:41;;;;;;;7.38;6.53;;;3.10;99.90;;;;;;5013244;28;20073;-73
2023/01/18 08:05:09;;;;;;;6.32;5.82;;;3.20;99.90;;;;;;5014470;28;20076;-73
2023/01/18 08:07:35;;;;;;;6.97;6.38;;;3.20;99.90;;;;;;5011707;28;20037;-73
2023/01/18 08:10:01;;;;;;;7.22;6.50;;;3.20;99.90;;;;;;5015016;28;20436;-73
2023/01/18 08:12:27;;;;;;;8.48;6.40;;;3.20;99.90;;;;;;5013330;28;20083;-72
2023/01/18 08:14:52;;;;;;;6.55;6.00;;;3.20;99.90;;;;;;5014714;28;20504;-72
2023/01/18 08:17:19;;;;;;;6.53;6.00;;;3.20;99.90;;;;;;5010569;28;20080;-73
2023/01/18 08:19:44;;;;;;;5.97;5.47;;;3.30;99.90;;;;;;5015240;28;20101;-73
2023/01/18 08:22:10;;;;;;;6.93;6.30;;;3.20;99.90;;;;;;5012143;28;20060;-73
2023/01/18 08:24:36;;;;;;;5.82;5.22;;;3.30;99.90;;;;;;5015751;28;20034;-72
2023/01/18 08:27:01;;;;;;;6.57;5.97;;;3.30;99.90;;;;;;5010919;28;20033;-72
2023/01/18 08:29:27;;;;;;;5.80;5.32;;;3.30;99.90;;;;;;5015761;28;20083;-73
2023/01/18 08:31:53;;;;;;;7.55;6.85;;;3.30;99.90;;;;;;5013712;28;20105;-73
2023/01/18 08:34:19;;;;;;;6.72;6.00;;;3.30;99.90;;;;;;5018944;28;20308;-73
2023/01/18 08:36:45;;;;;;;7.32;6.63;;;3.30;99.90;;;;;;5016691;28;20018;-73
2023/01/18 08:39:12;;;;;;;6.68;6.07;;;3.30;99.90;;;;;;5018367;28;20475;-73
2023/01/18 08:41:38;;;;;;;7.90;7.20;;;3.30;99.90;;;;;;5016345;28;20018;-73
2023/01/18 08:44:03;;;;;;;7.18;6.50;;;3.30;99.90;;;;;;5019070;28;20044;-73
2023/01/18 08:46:29;;;;;;;9.38;6.63;;;3.40;99.90;;;;;;5016030;28;20038;-72
2023/01/18 08:49:00;;;;;;;7.03;6.32;;;3.40;99.90;;;;;;5018793;28;20026;-73
2023/01/18 08:51:26;;;;;;;9.02;6.30;;;3.50;99.90;;;;;;5016648;28;20050;-73
2023/01/18 08:53:53;;;;;;;7.32;6.63;;;3.50;99.90;;;;;;5019370;28;20087;-73
2023/01/18 08:56:19;;;;;;;7.78;6.97;;;3.50;99.90;;;;;;5013608;28;20022;-73
2023/01/18 08:58:46;;;;;;;6.43;5.90;;;3.60;99.90;;;;;;5018623;28;20022;-73
2023/01/18 09:01:12;;;;;;;6.68;5.97;;;3.60;99.90;;;;;;5017262;28;20165;-73
2023/01/18 09:03:38;;;;;;;7.45;6.75;;;3.60;99.90;;;;;;5018833;28;20030;-73
2023/01/18 09:06:07;;;;;;;6.97;6.38;;;3.60;99.90;;;;;;5017379;28;20581;-73
2023/01/18 09:08:33;;;;;;;6.35;5.85;;;3.60;99.90;;;;;;5017368;28;20408;-73
2023/01/18 09:11:03;;;;;;;8.52;5.93;;;3.60;99.90;;;;;;5016589;28;20034;-72
2023/01/18 09:13:30;;;;;;;7.10;6.22;;;3.60;99.90;;;;;;5015690;28;20505;-73
2023/01/18 09:16:00;;;;;;;8.20;6.18;;;3.60;99.90;;;;;;5017426;28;20035;-73
2023/01/18 09:18:26;;;;;;;7.45;6.38;;;3.60;99.90;;;;;;5017142;28;20034;-72
2023/01/18 09:20:53;;;;;;;7.00;6.40;;;3.60;99.90;;;;;;5017609;28;20072;-73
2023/01/18 09:23:19;;;;;;;7.32;6.70;;;3.60;99.90;;;;;;5015770;28;20022;-72
2023/01/18 09:25:45;;;;;;;7.63;6.25;;;3.60;99.90;;;;;;5018242;28;20056;-73
2023/01/18 09:28:11;;;;;;;6.80;6.20;;;3.60;99.90;;;;;;5014169;28;20050;-73
2023/01/18 09:30:37;;;;;;;6.63;6.00;;;3.60;99.90;;;;;;5017320;28;20529;-73
2023/01/18 09:33:04;;;;;;;7.10;6.40;;;3.60;99.90;;;;;;5016263;28;20073;-73
2023/01/18 09:35:29;;;;;;;8.25;7.18;;;3.60;99.90;;;;;;5017581;28;20026;-72
2023/01/18 09:37:56;;;;;;;7.40;6.70;;;3.60;99.90;;;;;;5013516;28;20084;-72
2023/01/18 09:40:42;;;;;;;7.63;5.93;;;3.60;99.90;;;;;;5017458;28;20026;-73
2023/01/18 09:43:16;;;;;;;7.65;6.95;;;3.70;99.90;;;;;;5015951;28;20023;-73
2023/01/18 09:45:46;;;;;;;5.78;5.28;;;3.80;99.90;;;;;;5016339;28;20026;-72
2023/01/18 09:48:34;;;;;;;5.25;4.85;;;3.80;99.90;;;;;;5015437;28;20046;-73
2023/01/18 09:51:24;;;;;;;6.18;5.50;;;3.90;99.90;;;;;;5014788;28;20046;-72
2023/01/18 09:54:25;;;;;;;5.47;5.07;;;3.90;99.90;;;;;;5031624;28;20044;-72
2023/01/18 09:57:12;;;;;;;5.80;5.30;;;4.00;99.90;;;;;;5012204;28;20022;-73
2023/01/18 09:59:58;;;;;;;5.20;4.70;;;4.00;99.90;;;;;;5017178;28;20405;-72
2023/01/18 10:02:38;;;;;;;5.15;4.65;;;4.00;99.90;;;;;;5011814;28;20017;-73
2023/01/18 10:05:25;;;;;;;6.87;6.27;;;4.10;99.90;;;;;;5018870;28;20026;-73
2023/01/18 10:08:06;;;;;;;6.00;5.45;;;4.10;99.90;;;;;;5014077;28;20427;-73
2023/01/18 10:11:03;;;;;;;6.80;6.20;;;4.20;99.90;;;;;;5014900;28;20036;-72
2023/01/18 10:13:32;;;;;;;6.32;5.72;;;4.40;99.90;;;;;;5002472;28;20033;-72
2023/01/18 10:15:57;;;;;;;6.93;6.32;;;4.50;99.90;;;;;;5015067;28;20030;-73
2023/01/18 10:18:24;;;;;;;6.90;4.90;;;4.50;99.90;;;;;;5014110;28;20028;-73
2023/01/18 10:20:57;;;;;;;5.97;5.47;;;4.50;99.90;;;;;;5016830;28;20026;-72
2023/01/18 10:23:35;;;;;;;8.65;4.82;;;4.60;99.90;;;;;;5012431;28;20044;-74
2023/01/18 10:26:08;;;;;;;5.05;4.55;;;4.60;99.90;;;;;;5013954;28;20090;-72
2023/01/18 10:29:00;;;;;;;5.28;4.88;;;4.40;99.90;;;;;;5014802;28;20022;-72
2023/01/18 10:31:34;;;;;;;6.03;4.30;;;4.40;99.90;;;;;;5013483;28;20041;-72
2023/01/18 10:34:01;;;;;;;5.15;4.72;;;4.40;99.90;;;;;;5017521;28;20025;-72
2023/01/18 10:36:40;;;;;;;4.50;4.20;;;4.40;99.90;;;;;;5014397;28;20030;-73
2023/01/18 10:39:24;;;;;;;4.97;4.60;;;4.40;99.90;;;;;;5016722;28;20014;-72
2023/01/18 10:41:50;;;;;;;4.80;4.40;;;4.50;99.90;;;;;;5014224;28;20475;-73
2023/01/18 10:44:16;;;;;;;4.97;4.57;;;4.40;99.90;;;;;;5016331;28;20026;-72
2023/01/18 10:46:41;;;;;;;4.65;4.25;;;4.50;99.90;;;;;;5013672;28;20033;-73
2023/01/18 10:49:27;;;;;;;5.43;4.40;;;4.50;99.90;;;;;;5016620;28;20088;-73
2023/01/18 10:51:53;;;;;;;4.50;4.20;;;4.50;99.90;;;;;;5012313;28;20108;-72
2023/01/18 10:54:26;;;;;;;7.85;5.35;;;4.70;99.90;;;;;;5017011;28;20026;-72
2023/01/18 10:57:03;;;;;;;4.70;4.25;;;4.80;99.90;;;;;;5012408;28;20097;-73
2023/01/18 10:59:39;;;;;;;5.15;4.75;;;4.90;99.90;;;;;;5015109;28;20022;-72
2023/01/18 11:02:36;;;;;;;5.07;4.57;;;4.90;99.90;;;;;;5014690;28;20108;-73
2023/01/18 11:05:14;;;;;;;3.92;3.63;;;4.80;99.90;;;;;;5015655;28;20044;-73
2023/01/18 11:07:40;;;;;;;4.47;4.18;;;4.80;99.90;;;;;;5012408;28;20551;-72
2023/01/18 11:10:26;;;;;;;4.93;4.53;;;4.70;99.90;;;;;;5015731;28;20030;-72
2023/01/18 11:12:51;;;;;;;5.07;4.70;;;4.60;99.90;;;;;;5009394;28;20030;-73
2023/01/18 11:15:17;;;;;;;4.57;4.28;;;4.50;99.90;;;;;;5015919;28;20025;-73
2023/01/18 11:17:53;;;;;;;4.57;4.28;;;4.40;99.90;;;;;;5012261;28;20076;-73
2023/01/18 11:20:28;;;;;;;4.32;4.03;;;4.40;99.90;;;;;;5013334;28;20485;-72
2023/01/18 11:23:00;;;;;;;5.88;3.67;;;4.40;99.90;;;;;;5010370;28;20061;-73
2023/01/18 11:25:33;;;;;;;4.15;3.85;;;4.50;99.90;;;;;;5016720;28;20583;-72
2023/01/18 11:28:06;;;;;;;5.70;4.95;;;4.50;99.90;;;;;;5011714;28;20077;-73
2023/01/18 11:30:32;;;;;;;5.68;4.95;;;4.60;99.90;;;;;;5015306;28;20455;-73
2023/01/18 11:32:58;;;;;;;4.60;4.20;;;4.60;99.90;;;;;;5011638;28;20037;-73
2023/01/18 11:35:32;;;;;;;4.70;4.30;;;4.60;99.90;;;;;;5016818;28;20022;-73
2023/01/18 11:38:00;;;;;;;4.72;4.35;;;4.60;99.90;;;;;;5011157;28;20037;-73
2023/01/18 11:40:28;;;;;;;4.93;4.45;;;4.40;99.90;;;;;;5011339;28;20018;-73
2023/01/18 11:43:00;;;;;;;4.47;4.18;;;4.40;99.90;;;;;;5013697;28;20061;-73
2023/01/18 11:45:58;;;;;;;5.78;4.75;;;4.30;99.90;;;;;;5016277;28;20120;-74
2023/01/18 11:48:59;;;;;;;5.13;4.63;;;4.40;99.90;;;;;;5003781;28;20119;-73
2023/01/18 11:51:43;;;;;;;4.50;4.18;;;4.40;99.90;;;;;;5029177;28;20119;-73
2023/01/18 11:54:52;;;;;;;4.70;4.30;;;4.60;99.90;;;;;;5014676;28;20018;-73
2023/01/18 11:57:18;;;;;;;12.13;9.90;;;4.70;99.90;;;;;;5011053;28;20034;-73
2023/01/18 11:59:45;;;;;;;4.55;4.20;;;4.90;99.90;;;;;;5014691;28;20120;-73
2023/01/18 12:02:23;;;;;;;4.65;4.25;;;5.10;99.90;;;;;;5013856;28;20502;-72
2023/01/18 12:05:13;;;;;;;4.70;4.30;;;5.20;99.90;;;;;;5016328;28;20022;-73
2023/01/18 12:07:44;;;;;;;4.53;4.22;;;5.10;99.90;;;;;;4999374;28;20132;-75
2023/01/18 12:10:44;;;;;;;4.35;3.90;;;5.00;99.90;;;;;;5016086;28;20030;-73
2023/01/18 12:13:32;;;;;;;8.50;4.72;;;5.00;99.90;;;;;;5012326;28;20375;-73
2023/01/18 12:16:15;;;;;;;5.03;4.07;;;5.00;99.90;;;;;;5014453;28;20040;-74
2023/01/18 12:19:13;;;;;;;6.55;4.72;;;5.10;99.90;;;;;;5013500;28;20022;-74
2023/01/18 12:22:16;;;;;;;4.70;4.30;;;5.00;99.90;;;;;;5013952;28;20113;-73
2023/01/18 12:25:18;;;;;;;4.35;3.97;;;5.10;99.90;;;;;;5016062;28;20053;-73
2023/01/18 12:27:49;;;;;;;4.90;4.40;;;5.10;99.90;;;;;;5009715;28;20068;-73
2023/01/18 12:30:24;;;;;;;5.80;4.85;;;5.20;99.90;;;;;;5013618;28;20149;-73
2023/01/18 12:33:21;;;;;;;3.90;3.60;;;5.20;99.90;;;;;;5011355;28;20474;-73
2023/01/18 12:35:47;;;;;;;3.83;3.50;;;5.20;99.90;;;;;;5014132;28;20030;-74
2023/01/18 12:38:30;;;;;;;4.60;4.28;;;5.20;99.90;;;;;;5014192;28;20075;-73
2023/01/18 12:41:14;;;;;;;5.18;4.00;;;5.20;99.90;;;;;;5012751;28;20029;-74
2023/01/18 12:44:20;;;;;;;100.22;35.55;;;5.20;99.90;;;;;;5012155;28;20026;-73
2023/01/18 12:47:05;;;;;;;4.88;4.40;;;5.20;99.90;;;;;;5003702;28;20046;-73
2023/01/18 12:49:37;;;;;;;5.95;5.18;;;5.30;99.90;;;;;;5010946;28;20026;-75
2023/01/18 12:52:04;;;;;;;4.38;3.90;;;5.40;99.90;;;;;;5040025;28;20045;-75
2023/01/18 12:54:40;;;;;;;11.77;6.95;;;5.40;99.90;;;;;;5014641;28;20033;-73
2023/01/18 12:57:07;;;;;;;6.50;4.55;;;5.50;99.90;;;;;;5009347;28;20032;-74
2023/01/18 12:59:52;;;;;;;4.18;3.83;;;5.50;99.90;;;;;;5014877;28;20030;-74
2023/01/18 13:02:35;;;;;;;5.95;3.90;;;5.50;99.90;;;;;;5012760;28;20014;-75
2023/01/18 13:05:37;;;;;;;4.38;3.97;;;5.50;99.90;;;;;;5013615;28;20412;-74
2023/01/18 13:08:14;;;;;;;5.25;4.13;;;5.50;99.90;;;;;;5010433;28;20084;-74
2023/01/18 13:10:40;;;;;;;4.70;4.30;;;5.40;99.90;;;;;;5015686;28;20026;-74
2023/01/18 13:13:11;;;;;;;3.83;3.50;;;5.40;99.90;;;;;;5011494;28;20080;-74
2023/01/18 13:15:41;;;;;;;3.92;3.60;;;5.50;99.90;;;;;;5014342;28;20026;-73
2023/01/18 13:18:18;;;;;;;4.15;3.85;;;5.50;99.90;;;;;;5011735;28;20036;-73
2023/01/18 13:21:15;;;;;;;6.47;4.32;;;5.60;99.90;;;;;;5018116;28;20053;-73
2023/01/18 13:24:02;;;;;;;5.43;3.95;;;5.60;99.90;;;;;;5013898;28;20104;-73
2023/01/18 13:26:31;;;;;;;5.80;4.55;;;5.60;99.90;;;;;;5015516;28;20402;-73
2023/01/18 13:29:11;;;;;;;5.28;3.72;;;5.60;99.90;;;;;;5016841;28;20080;-73
2023/01/18 13:31:37;;;;;;;7.00;5.30;;;5.60;99.90;;;;;;5013318;28;20037;-73
2023/01/18 13:34:03;;;;;;;4.75;4.00;;;5.60;99.90;;;;;;5016676;28;20054;-74
2023/01/18 13:36:43;;;;;;;4.25;3.90;;;5.70;99.90;;;;;;5014920;28;20018;-73
2023/01/18 13:39:17;;;;;;;4.95;4.40;;;5.70;99.90;;;;;;5029195;28;20037;-73
2023/01/18 13:42:02;;;;;;;4.90;4.40;;;5.70;99.90;;;;;;5015600;28;20101;-73
2023/01/18 13:44:39;;;;;;;4.03;3.58;;;5.70;99.90;;;;;;5018050;28;20061;-74
2023/01/18 13:47:44;;;;;;;4.07;3.67;;;5.80;99.90;;;;;;5011904;28;20056;-73
2023/01/18 13:50:31;;;;;;;3.85;3.55;;;5.80;99.90;;;;;;5014455;28;20046;-73
2023/01/18 13:53:12;;;;;;;4.20;3.80;;;5.80;99.90;;;;;;5015119;28;20034;-74